Time,TemperatureF,DewpointF,PressureIn,WindDirection,WindDirectionDegrees,WindSpeedMPH,WindSpeedGustMPH,Humidity,HourlyPrecipIn,Conditions,Clouds,dailyrainin,SoftwareType,DateUTC
2013-05-31 12:00:00,75.0,-99.9,-100.00,SSW,197,2.0,7.0,-999,0.00,,,-99.99,,2013-05-31 17:00:00,
2013-05-31 12:32:00,75.0,-99.9,-100.00,SSW,197,2.0,7.0,-999,0.00,,,-99.99,,2013-05-31 17:32:00,
2013-05-31 12:42:00,75.0,-99.9,-100.00,SSW,197,2.0,7.0,-999,0.00,,,-99.99,,2013-05-31 17:42:00,
2013-05-31 12:52:00,75.0,-99.9,-100.00,SSW,197,2.0,7.0,-999,0.00,,,-99.99,,2013-05-31 17:52:00,
2013-05-31 13:32:00,73.0,-99.9,-100.00,SSE,150,4.0,10.0,-999,0.00,,,-99.99,,2013-05-31 18:32:00,
2013-05-31 13:42:00,73.0,-99.9,-100.00,SSE,150,4.0,10.0,-999,0.00,,,-99.99,,2013-05-31 18:42:00,
2013-05-31 13:52:00,73.0,-99.9,-100.00,SSE,150,4.0,10.0,-999,0.00,,,-99.99,,2013-05-31 18:52:00,
2013-05-31 14:02:00,75.0,-99.9,-100.00,South,170,1.0,6.0,-999,0.00,,,-99.99,,2013-05-31 19:02:00,
2013-05-31 14:12:00,75.0,-99.9,-100.00,South,170,1.0,6.0,-999,0.00,,,-99.99,,2013-05-31 19:12:00,
2013-05-31 14:22:00,75.0,-99.9,-100.00,South,170,1.0,6.0,-999,0.00,,,-99.99,,2013-05-31 19:22:00,
2013-05-31 14:32:00,75.0,-99.9,-100.00,South,176,2.0,4.0,-999,0.00,,,-99.99,,2013-05-31 19:32:00,
2013-05-31 14:42:00,75.0,-99.9,-100.00,South,176,2.0,4.0,-999,0.00,,,-99.99,,2013-05-31 19:42:00,
2013-05-31 14:52:00,75.0,-99.9,-100.00,SSE,164,2.0,6.0,-999,0.00,,,-99.99,,2013-05-31 19:52:00,
2013-05-31 15:02:00,75.0,-99.9,-100.00,SSE,164,2.0,6.0,-999,0.00,,,-99.99,,2013-05-31 20:02:00,
2013-05-31 15:11:00,75.0,-99.9,-100.00,SSE,164,2.0,6.0,-999,0.00,,,-99.99,,2013-05-31 20:11:00,
2013-05-31 15:22:00,75.0,-99.9,-100.00,SSE,164,2.0,6.0,-999,0.00,,,-99.99,,2013-05-31 20:22:00,
2013-05-31 15:32:00,76.0,-99.9,-100.00,SW,219,3.0,13.0,-999,0.00,,,-99.99,,2013-05-31 20:32:00,
2013-05-31 15:42:00,76.0,-99.9,-100.00,SW,219,3.0,13.0,-999,0.00,,,-99.99,,2013-05-31 20:42:00,
2013-05-31 15:52:00,76.0,-99.9,-100.00,SW,219,3.0,13.0,-999,0.00,,,-99.99,,2013-05-31 20:52:00,
2013-05-31 16:01:00,75.0,-99.9,-100.00,South,190,2.0,6.0,-999,0.00,,,-99.99,,2013-05-31 21:01:00,
2013-05-31 16:12:00,75.0,-99.9,-100.00,South,190,2.0,6.0,-999,0.00,,,-99.99,,2013-05-31 21:12:00,
2013-05-31 16:22:00,75.0,-99.9,-100.00,South,190,2.0,6.0,-999,0.00,,,-99.99,,2013-05-31 21:22:00,
2013-05-31 16:33:00,75.0,-99.9,-100.00,SSW,209,3.0,6.0,-999,0.00,,,-99.99,,2013-05-31 21:33:00,
2013-05-31 16:43:00,75.0,-99.9,-100.00,SSW,209,3.0,6.0,-999,0.00,,,-99.99,,2013-05-31 21:43:00,
2013-05-31 16:54:00,75.0,-99.9,-100.00,SSW,209,3.0,6.0,-999,0.00,,,-99.99,,2013-05-31 21:54:00,
2013-05-31 17:03:00,76.0,-99.9,-100.00,South,175,3.0,11.0,-999,0.00,,,-99.99,,2013-05-31 22:03:00,
2013-05-31 17:12:00,76.0,-99.9,-100.00,South,175,3.0,11.0,-999,0.00,,,-99.99,,2013-05-31 22:12:00,
2013-05-31 17:23:00,76.0,-99.9,-100.00,South,175,3.0,11.0,-999,0.00,,,-99.99,,2013-05-31 22:23:00,
2013-05-31 17:33:00,77.0,-99.9,-100.00,South,182,2.0,8.0,-999,0.00,,,-99.99,,2013-05-31 22:33:00,
2013-05-31 17:42:00,77.0,-99.9,-100.00,South,182,2.0,8.0,-999,0.00,,,-99.99,,2013-05-31 22:42:00,
2013-05-31 17:53:00,77.0,-99.9,-100.00,South,182,2.0,8.0,-999,0.00,,,-99.99,,2013-05-31 22:53:00,
2013-05-31 18:02:00,77.0,-99.9,-100.00,SSE,154,3.0,7.0,-999,0.00,,,-99.99,,2013-05-31 23:02:00,
2013-05-31 18:12:00,77.0,-99.9,-100.00,SSE,154,3.0,7.0,-999,0.00,,,-99.99,,2013-05-31 23:12:00,
2013-05-31 18:22:00,77.0,-99.9,-100.00,SSE,154,3.0,7.0,-999,0.00,,,-99.99,,2013-05-31 23:22:00,
2013-05-31 18:32:00,76.0,-99.9,-100.00,SW,214,2.0,9.0,-999,0.00,,,-99.99,,2013-05-31 23:32:00,
2013-05-31 18:43:00,76.0,-99.9,-100.00,SW,214,2.0,9.0,-999,0.00,,,-99.99,,2013-05-31 23:43:00,
2013-05-31 18:52:00,76.0,-99.9,-100.00,SW,214,2.0,9.0,-999,0.00,,,-99.99,,2013-05-31 23:52:00,
2013-05-31 19:01:00,76.0,-99.9,-100.00,SW,224,1.0,3.0,-999,0.00,,,-99.99,,2013-06-01 00:01:00,
2013-05-31 19:12:00,76.0,-99.9,-100.00,SW,224,1.0,3.0,-999,0.00,,,-99.99,,2013-06-01 00:12:00,
2013-05-31 19:22:00,75.0,-99.9,-100.00,South,178,1.0,4.0,-999,0.00,,,-99.99,,2013-06-01 00:22:00,
2013-05-31 19:32:00,75.0,-99.9,-100.00,South,178,1.0,4.0,-999,0.00,,,-99.99,,2013-06-01 00:32:00,
2013-05-31 19:42:00,75.0,-99.9,-100.00,South,178,1.0,4.0,-999,0.00,,,-99.99,,2013-06-01 00:42:00,
2013-05-31 19:52:00,74.0,-99.9,-100.00,SSE,153,4.0,10.0,-999,0.00,,,-99.99,,2013-06-01 00:52:00,
2013-05-31 20:02:00,74.0,-99.9,-100.00,SSE,153,4.0,10.0,-999,0.00,,,-99.99,,2013-06-01 01:02:00,
2013-05-31 20:11:00,74.0,-99.9,-100.00,SSE,153,4.0,10.0,-999,0.00,,,-99.99,,2013-06-01 01:11:00,
2013-05-31 20:22:00,74.0,-99.9,-100.00,SSE,153,4.0,10.0,-999,0.00,,,-99.99,,2013-06-01 01:22:00,
2013-05-31 20:32:00,72.0,-99.9,-100.00,SSE,155,2.0,5.0,-999,0.00,,,-99.99,,2013-06-01 01:32:00,
2013-05-31 20:42:00,72.0,-99.9,-100.00,SSE,155,2.0,5.0,-999,0.00,,,-99.99,,2013-06-01 01:42:00,
2013-05-31 20:52:00,72.0,-99.9,-100.00,SSW,193,0.0,1.0,-999,0.00,,,-99.99,,2013-06-01 01:52:00,
2013-05-31 21:02:00,72.0,-99.9,-100.00,SSW,193,0.0,1.0,-999,0.00,,,-99.99,,2013-06-01 02:02:00,
2013-05-31 21:12:00,72.0,-99.9,-100.00,SSW,193,0.0,1.0,-999,0.00,,,-99.99,,2013-06-01 02:12:00,
2013-05-31 21:22:00,72.0,-99.9,-100.00,SSW,193,0.0,1.0,-999,0.00,,,-99.99,,2013-06-01 02:22:00,
2013-05-31 21:32:00,71.0,-99.9,-100.00,SSE,149,1.0,4.0,-999,0.00,,,-99.99,,2013-06-01 02:32:00,
2013-05-31 21:42:00,71.0,-99.9,-100.00,SSE,149,1.0,4.0,-999,0.00,,,-99.99,,2013-06-01 02:42:00,
2013-05-31 21:52:00,70.0,-99.9,-100.00,SSE,152,2.0,6.0,-999,0.00,,,-99.99,,2013-06-01 02:52:00,
2013-05-31 22:02:00,70.0,-99.9,-100.00,SSE,152,2.0,6.0,-999,0.00,,,-99.99,,2013-06-01 03:02:00,
2013-05-31 22:12:00,70.0,-99.9,-100.00,SSE,152,2.0,6.0,-999,0.00,,,-99.99,,2013-06-01 03:12:00,
2013-05-31 22:22:00,70.0,-99.9,-100.00,SSE,152,2.0,6.0,-999,0.00,,,-99.99,,2013-06-01 03:22:00,
2013-05-31 22:33:00,70.0,-99.9,-100.00,SSW,198,0.0,3.0,-999,0.00,,,-99.99,,2013-06-01 03:33:00,
2013-05-31 22:43:00,70.0,-99.9,-100.00,SSW,198,0.0,3.0,-999,0.00,,,-99.99,,2013-06-01 03:43:00,
2013-05-31 22:53:00,69.0,-99.9,-100.00,SSE,152,5.0,7.0,-999,0.00,,,-99.99,,2013-06-01 03:53:00,
2013-05-31 23:03:00,69.0,-99.9,-100.00,SSE,152,5.0,7.0,-999,0.00,,,-99.99,,2013-06-01 04:03:00,
2013-05-31 23:13:00,69.0,-99.9,-100.00,SSE,152,5.0,7.0,-999,0.00,,,-99.99,,2013-06-01 04:13:00,
2013-05-31 23:23:00,69.0,-99.9,-100.00,SSE,152,5.0,7.0,-999,0.00,,,-99.99,,2013-06-01 04:23:00,
2013-05-31 23:33:00,69.0,-99.9,-100.00,SE,145,11.0,16.0,-999,0.00,,,-99.99,,2013-06-01 04:33:00,
2013-05-31 23:42:00,69.0,-99.9,-100.00,SE,145,11.0,16.0,-999,0.00,,,-99.99,,2013-06-01 04:42:00,
2013-05-31 23:53:00,70.0,-99.9,-100.00,SW,229,1.0,4.0,-999,0.00,,,-99.99,,2013-06-01 04:53:00,